createdAt,value
2018-09-19T00:00:05.579Z,4.20
2018-09-19T00:05:08.836Z,1.40
2018-09-19T00:10:12.128Z,1.63
2018-09-19T00:15:15.391Z,2.43
2018-09-19T00:20:18.765Z,2.37
2018-09-19T00:25:21.965Z,2.50
2018-09-19T00:30:25.700Z,2.10
2018-09-19T00:35:29.030Z,2.17
2018-09-19T00:40:31.958Z,1.70
2018-09-19T00:45:35.226Z,1.90
2018-09-19T00:50:38.503Z,1.77
2018-09-19T00:55:41.776Z,2.20
2018-09-19T01:00:45.035Z,1.80
2018-09-19T01:05:48.341Z,2.27
2018-09-19T01:10:51.610Z,3.77
2018-09-19T01:15:54.882Z,3.70
2018-09-19T01:20:58.151Z,3.40
2018-09-19T01:26:01.403Z,3.37
2018-09-19T01:31:04.680Z,3.60
2018-09-19T01:36:07.940Z,4.00
2018-09-19T01:41:11.204Z,4.30
2018-09-19T01:46:14.454Z,3.80
2018-09-19T01:51:17.718Z,3.57
2018-09-19T01:56:20.996Z,3.40
2018-09-19T02:01:24.280Z,3.53
2018-09-19T02:06:27.557Z,3.30
2018-09-19T02:11:32.129Z,2.67
2018-09-19T02:16:35.461Z,2.90
2018-09-19T02:21:38.766Z,2.77
2018-09-19T02:26:42.047Z,2.03
2018-09-19T02:31:45.345Z,1.80
2018-09-19T02:36:48.415Z,2.30
2018-09-19T02:41:51.690Z,2.30
2018-09-19T02:46:55.032Z,1.33
2018-09-19T02:51:59.209Z,1.80
2018-09-19T02:57:02.495Z,2.00
2018-09-19T03:02:05.793Z,2.17
2018-09-19T03:07:09.077Z,3.00
2018-09-19T03:12:12.369Z,2.20
2018-09-19T03:17:15.717Z,3.13
2018-09-19T03:22:18.980Z,2.50
2018-09-19T03:27:22.267Z,2.57
2018-09-19T03:32:25.522Z,2.63
2018-09-19T03:37:28.798Z,3.03
2018-09-19T03:42:32.070Z,2.70
2018-09-19T03:47:35.085Z,2.63
2018-09-19T03:52:38.344Z,3.23
2018-09-19T03:57:41.621Z,3.70
2018-09-19T04:02:44.881Z,3.27
2018-09-19T04:07:48.188Z,3.60
2018-09-19T04:12:51.484Z,3.43
2018-09-19T04:17:54.809Z,3.93
2018-09-19T04:22:58.033Z,3.60
2018-09-19T04:28:01.303Z,3.83
2018-09-19T04:33:04.593Z,5.03
2018-09-19T04:38:07.937Z,3.23
2018-09-19T04:43:11.205Z,3.60
2018-09-19T04:48:14.479Z,3.60
2018-09-19T04:53:17.469Z,3.37
2018-09-19T04:58:20.731Z,3.77
2018-09-19T05:03:23.989Z,5.00
2018-09-19T05:08:27.751Z,5.03
2018-09-19T05:13:31.009Z,4.00
2018-09-19T05:18:33.998Z,3.63
2018-09-19T05:23:37.247Z,3.40
2018-09-19T05:28:40.695Z,3.57
2018-09-19T05:33:44.069Z,3.30
2018-09-19T05:38:47.363Z,3.80
2018-09-19T05:43:50.634Z,3.70
2018-09-19T05:48:53.890Z,4.43
2018-09-19T05:53:57.159Z,4.40
2018-09-19T05:59:00.423Z,4.63
2018-09-19T06:04:03.728Z,4.33
2018-09-19T06:09:09.235Z,4.43
2018-09-19T06:14:12.509Z,4.90
2018-09-19T06:19:15.803Z,4.63
2018-09-19T06:24:19.093Z,5.10
2018-09-19T06:29:22.357Z,4.83
2018-09-19T06:34:25.667Z,4.40
2018-09-19T06:39:28.921Z,4.93
2018-09-19T06:44:32.200Z,5.30
2018-09-19T06:49:35.462Z,6.67
2018-09-19T06:54:38.741Z,5.00
2018-09-19T06:59:42.100Z,4.80
2018-09-19T07:04:45.321Z,4.70
2018-09-19T07:09:48.622Z,4.43
2018-09-19T07:14:51.899Z,4.20
2018-09-19T07:19:55.196Z,4.27
2018-09-19T07:24:58.460Z,4.03
2018-09-19T07:30:01.926Z,3.83
2018-09-19T07:35:05.438Z,4.70
2018-09-19T07:40:08.735Z,4.00
2018-09-19T07:45:11.994Z,3.53
2018-09-19T07:50:15.259Z,4.50
2018-09-19T07:55:18.555Z,3.70
2018-09-19T08:00:21.821Z,3.87
2018-09-19T08:05:25.056Z,3.60
2018-09-19T08:10:28.342Z,3.47
2018-09-19T08:15:31.600Z,3.17
2018-09-19T08:20:34.866Z,3.60
2018-09-19T08:25:38.143Z,3.47
2018-09-19T08:30:41.406Z,4.20
2018-09-19T08:35:44.683Z,3.80
2018-09-19T08:40:47.925Z,4.33
2018-09-19T08:45:51.255Z,3.33
2018-09-19T08:50:54.495Z,3.33
2018-09-19T08:55:57.771Z,3.70
2018-09-19T09:01:01.038Z,3.40
2018-09-19T09:06:04.343Z,5.70
2018-09-19T09:11:07.605Z,3.37
2018-09-19T09:16:10.876Z,3.80
2018-09-19T09:21:14.177Z,3.20
2018-09-19T09:26:17.480Z,4.23
2018-09-19T09:31:20.723Z,4.00
2018-09-19T09:36:24.004Z,3.90
2018-09-19T09:41:27.297Z,3.80
2018-09-19T09:46:30.668Z,3.42
2018-09-19T09:51:33.962Z,3.25
2018-09-19T09:56:37.227Z,3.37
2018-09-19T10:01:40.511Z,3.50
2018-09-19T10:06:43.798Z,3.20
2018-09-19T10:11:47.100Z,3.60
2018-09-19T10:16:50.366Z,3.77
2018-09-19T10:21:53.622Z,3.45
2018-09-19T10:26:56.883Z,4.47
2018-09-19T10:32:00.131Z,4.35
2018-09-19T10:37:03.399Z,5.00
2018-09-19T10:42:06.689Z,5.10
2018-09-19T10:47:10.001Z,5.33
2018-09-19T10:52:13.302Z,4.90
2018-09-19T10:57:16.571Z,4.77
2018-09-19T11:02:19.840Z,5.73
2018-09-19T11:07:23.099Z,4.93
2018-09-19T11:12:26.367Z,4.35
2018-09-19T11:17:29.623Z,4.70
2018-09-19T11:22:32.904Z,4.97
2018-09-19T11:27:36.198Z,6.30
2018-09-19T11:32:39.461Z,4.95
2018-09-19T11:37:42.748Z,4.67
2018-09-19T11:42:46.022Z,4.22
2018-09-19T11:47:49.295Z,4.50
2018-09-19T11:52:52.554Z,4.60
2018-09-19T11:57:55.868Z,4.83
2018-09-19T12:02:59.098Z,4.40
2018-09-19T12:08:02.403Z,4.97
2018-09-19T12:13:05.716Z,4.78
2018-09-19T12:18:08.987Z,3.40
2018-09-19T12:23:12.259Z,3.80
2018-09-19T12:28:15.519Z,3.50
2018-09-19T12:33:18.849Z,3.87
2018-09-19T12:38:22.067Z,3.25
2018-09-19T12:43:25.335Z,3.20
2018-09-19T12:48:28.599Z,3.12
2018-09-19T12:53:31.868Z,3.27
2018-09-19T12:58:35.152Z,4.12
2018-09-19T13:03:38.450Z,4.05
2018-09-19T13:08:41.732Z,3.77
2018-09-19T13:13:44.989Z,3.20
2018-09-19T13:18:48.313Z,3.45
2018-09-19T13:23:52.226Z,2.50
2018-09-19T13:28:55.511Z,2.70
2018-09-19T13:33:59.597Z,2.75
2018-09-19T13:39:02.877Z,2.42
2018-09-19T13:44:06.223Z,2.27
2018-09-19T13:49:22.768Z,2.40
2018-09-19T13:54:26.035Z,2.35
2018-09-19T13:59:29.285Z,2.00
2018-09-19T14:04:32.546Z,2.22
2018-09-19T14:09:35.825Z,2.58
2018-09-19T14:14:39.079Z,3.12
2018-09-19T14:19:42.356Z,3.08
2018-09-19T14:24:45.606Z,2.90
2018-09-19T14:29:48.903Z,3.00
2018-09-19T14:34:52.176Z,2.85
2018-09-19T14:39:55.449Z,2.35
2018-09-19T14:44:58.714Z,2.80
2018-09-19T14:50:01.976Z,2.92
2018-09-19T14:55:05.263Z,2.55
2018-09-19T15:00:08.887Z,3.00
2018-09-19T15:05:12.094Z,2.37
2018-09-19T15:10:15.355Z,2.90
2018-09-19T15:15:18.633Z,2.50
2018-09-19T15:20:21.887Z,2.40
2018-09-19T15:25:25.132Z,2.70
2018-09-19T15:30:28.381Z,2.45
2018-09-19T15:35:31.651Z,2.40
2018-09-19T15:40:35.005Z,2.30
2018-09-19T15:45:38.333Z,2.30
2018-09-19T15:50:41.632Z,2.30
2018-09-19T15:55:45.117Z,2.83
2018-09-19T16:00:48.759Z,2.35
2018-09-19T16:05:52.206Z,2.50
2018-09-19T16:10:55.504Z,3.25
2018-09-19T16:15:58.826Z,2.80
2018-09-19T16:21:02.152Z,3.00
2018-09-19T16:26:05.556Z,3.10
2018-09-19T16:31:09.171Z,3.02
2018-09-19T16:36:12.431Z,2.62
2018-09-19T16:41:15.722Z,2.50
2018-09-19T16:46:19.807Z,2.90
2018-09-19T16:51:23.090Z,3.43
2018-09-19T16:56:26.376Z,4.00
2018-09-19T17:01:29.954Z,4.07
2018-09-19T17:16:08.402Z,4.77
2018-09-19T17:21:11.838Z,4.33
2018-09-19T17:26:16.030Z,4.83
2018-09-19T17:31:19.587Z,4.80
2018-09-19T17:36:23.139Z,5.53
2018-09-19T17:41:26.443Z,5.97
2018-09-19T17:46:29.949Z,5.80
2018-09-19T17:51:33.466Z,5.77
2018-09-19T17:56:37.090Z,5.83
2018-09-19T18:01:40.717Z,6.80
2018-09-19T18:06:44.016Z,6.87
2018-09-19T18:11:47.301Z,6.90
2018-09-19T18:16:50.620Z,5.80
2018-09-19T18:21:53.890Z,6.57
2018-09-19T18:26:58.111Z,6.80
2018-09-19T18:32:01.399Z,7.70
2018-09-19T18:37:04.776Z,8.37
2018-09-19T18:42:08.516Z,8.53
2018-09-19T18:47:12.234Z,8.50
2018-09-19T18:52:15.686Z,8.23
2018-09-19T18:57:18.939Z,8.10
2018-09-19T19:02:22.774Z,8.37
2018-09-19T19:07:26.078Z,7.60
2018-09-19T19:12:29.582Z,6.77
2018-09-19T19:17:32.886Z,6.30
2018-09-19T19:22:36.873Z,7.73
2018-09-19T19:27:40.248Z,7.37
2018-09-19T19:32:43.667Z,6.90
2018-09-19T19:37:48.649Z,6.77
2018-09-19T19:42:51.756Z,7.47
2018-09-19T19:47:54.939Z,7.40
2018-09-19T19:52:58.449Z,8.23
2018-09-19T19:58:01.869Z,10.90
2018-09-19T20:03:05.576Z,12.27
2018-09-19T20:08:08.665Z,10.60
2018-09-19T20:13:12.095Z,11.67
2018-09-19T20:18:16.323Z,10.17
2018-09-19T20:23:20.262Z,11.70
2018-09-19T20:28:24.187Z,10.67
2018-09-19T20:33:28.262Z,12.13
2018-09-19T20:38:31.639Z,9.10
2018-09-19T20:43:35.375Z,10.27
2018-09-19T20:48:39.720Z,8.97
2018-09-19T20:53:42.816Z,11.60
2018-09-19T20:58:46.271Z,11.33
2018-09-19T21:03:49.666Z,10.23
2018-09-19T21:08:53.766Z,14.13
2018-09-19T21:13:57.537Z,13.53
2018-09-19T21:19:00.909Z,14.83
2018-09-19T21:24:04.677Z,15.93
2018-09-19T21:29:07.988Z,16.50
2018-09-19T21:34:11.252Z,13.97
2018-09-19T21:39:14.738Z,16.83
2018-09-19T21:44:18.035Z,17.70
2018-09-19T21:49:21.302Z,19.33
2018-09-19T21:54:24.567Z,18.77
2018-09-19T21:59:27.561Z,18.43
2018-09-19T22:04:30.834Z,19.47
2018-09-19T22:09:34.085Z,20.33
2018-09-19T22:14:37.296Z,18.70
2018-09-19T22:19:40.556Z,18.73
2018-09-19T22:24:43.553Z,21.93
2018-09-19T22:29:46.821Z,22.40
2018-09-19T22:34:50.165Z,22.47
2018-09-19T22:39:53.426Z,18.23
2018-09-19T22:44:56.687Z,18.37
2018-09-19T22:49:59.939Z,24.33
2018-09-19T22:55:03.194Z,20.40
2018-09-19T23:00:06.538Z,19.60
2018-09-19T23:05:09.791Z,23.93
2018-09-19T23:10:12.826Z,26.20
2018-09-19T23:15:16.107Z,26.80
2018-09-19T23:20:19.375Z,26.00
2018-09-19T23:25:22.648Z,25.13
2018-09-19T23:30:25.912Z,24.90
2018-09-19T23:35:29.179Z,24.83
2018-09-19T23:40:32.465Z,24.93
2018-09-19T23:45:35.737Z,25.73
2018-09-19T23:50:39.010Z,26.27
2018-09-19T23:55:42.291Z,25.77
